Terminal Aerodrome Forecast
Issued by NWS

Home | Current Version | Previous Version | Text Only | Print | Product List | Glossary On
Versions: 1 2 3 4 5 6 7 8 9 10 11 12 13 14 15 16
507
FTUS46 KSTO 172320
TAFSCK
TAF
KSCK 172320Z 1800/1824 33008KT P6SM SKC
     FM181200 VRB03KT 3SM BR FEW002
     FM181800 30004KT P6SM SKC=

USA.gov is the U.S. government's official web portal to all federal, state and local government web resources and services.